sensor_id;sensor_type;location;lat;lon;timestamp;P1;durP1;ratioP1;P2;durP2;ratioP2
18136;SDS011;9194;42.632;23.298;2022-10-31T00:04:22;6.10;;;2.40;;
18136;SDS011;9194;42.632;23.298;2022-10-31T00:09:23;2.38;;;2.00;;
18136;SDS011;9194;42.632;23.298;2022-10-31T00:14:25;4.80;;;2.47;;
18136;SDS011;9194;42.632;23.298;2022-10-31T00:19:26;3.22;;;2.00;;
18136;SDS011;9194;42.632;23.298;2022-10-31T00:24:27;4.97;;;2.22;;
18136;SDS011;9194;42.632;23.298;2022-10-31T00:29:28;8.00;;;2.60;;
18136;SDS011;9194;42.632;23.298;2022-10-31T00:34:30;9.65;;;2.80;;
18136;SDS011;9194;42.632;23.298;2022-10-31T00:39:34;13.02;;;2.67;;
18136;SDS011;9194;42.632;23.298;2022-10-31T00:44:35;3.40;;;2.38;;
18136;SDS011;9194;42.632;23.298;2022-10-31T00:49:37;3.40;;;2.13;;
18136;SDS011;9194;42.632;23.298;2022-10-31T00:54:38;6.82;;;2.58;;
18136;SDS011;9194;42.632;23.298;2022-10-31T00:59:40;4.80;;;2.42;;
18136;SDS011;9194;42.632;23.298;2022-10-31T01:04:41;5.72;;;2.53;;
18136;SDS011;9194;42.632;23.298;2022-10-31T01:09:42;7.47;;;2.72;;
18136;SDS011;9194;42.632;23.298;2022-10-31T01:14:44;5.53;;;2.47;;
18136;SDS011;9194;42.632;23.298;2022-10-31T01:19:46;5.85;;;2.28;;
18136;SDS011;9194;42.632;23.298;2022-10-31T01:24:47;4.70;;;2.03;;
18136;SDS011;9194;42.632;23.298;2022-10-31T01:29:48;7.55;;;2.08;;
18136;SDS011;9194;42.632;23.298;2022-10-31T01:34:53;6.78;;;2.90;;
18136;SDS011;9194;42.632;23.298;2022-10-31T01:39:54;6.10;;;2.42;;
18136;SDS011;9194;42.632;23.298;2022-10-31T01:44:59;12.38;;;2.95;;
18136;SDS011;9194;42.632;23.298;2022-10-31T01:50:03;6.22;;;2.60;;
18136;SDS011;9194;42.632;23.298;2022-10-31T02:00:19;5.25;;;2.63;;
18136;SDS011;9194;42.632;23.298;2022-10-31T02:05:22;4.18;;;2.58;;
18136;SDS011;9194;42.632;23.298;2022-10-31T02:10:28;7.15;;;2.60;;
18136;SDS011;9194;42.632;23.298;2022-10-31T02:15:32;7.97;;;2.63;;
18136;SDS011;9194;42.632;23.298;2022-10-31T02:42:25;3.22;;;2.50;;
18136;SDS011;9194;42.632;23.298;2022-10-31T02:47:36;7.00;;;2.90;;
18136;SDS011;9194;42.632;23.298;2022-10-31T02:52:39;8.13;;;3.08;;
18136;SDS011;9194;42.632;23.298;2022-10-31T02:57:40;9.98;;;3.95;;
18136;SDS011;9194;42.632;23.298;2022-10-31T03:19:25;7.03;;;3.33;;
18136;SDS011;9194;42.632;23.298;2022-10-31T03:24:29;7.75;;;3.60;;
18136;SDS011;9194;42.632;23.298;2022-10-31T03:29:35;11.45;;;4.07;;
18136;SDS011;9194;42.632;23.298;2022-10-31T03:34:41;10.13;;;3.88;;
18136;SDS011;9194;42.632;23.298;2022-10-31T03:39:45;8.93;;;4.35;;
18136;SDS011;9194;42.632;23.298;2022-10-31T03:50:09;8.18;;;2.90;;
18136;SDS011;9194;42.632;23.298;2022-10-31T03:55:24;7.32;;;3.33;;
18136;SDS011;9194;42.632;23.298;2022-10-31T04:00:26;4.22;;;2.90;;
18136;SDS011;9194;42.632;23.298;2022-10-31T04:05:28;6.68;;;3.05;;
18136;SDS011;9194;42.632;23.298;2022-10-31T04:10:34;5.47;;;2.85;;
18136;SDS011;9194;42.632;23.298;2022-10-31T04:15:40;7.68;;;3.00;;
18136;SDS011;9194;42.632;23.298;2022-10-31T04:20:43;5.22;;;2.85;;
18136;SDS011;9194;42.632;23.298;2022-10-31T04:25:46;5.53;;;2.63;;
18136;SDS011;9194;42.632;23.298;2022-10-31T04:30:48;7.13;;;2.63;;
18136;SDS011;9194;42.632;23.298;2022-10-31T04:35:49;11.52;;;3.17;;
18136;SDS011;9194;42.632;23.298;2022-10-31T04:40:51;7.25;;;2.60;;
18136;SDS011;9194;42.632;23.298;2022-10-31T04:46:11;5.53;;;2.37;;
18136;SDS011;9194;42.632;23.298;2022-10-31T04:51:13;4.40;;;2.88;;
18136;SDS011;9194;42.632;23.298;2022-10-31T04:56:14;9.10;;;2.80;;
18136;SDS011;9194;42.632;23.298;2022-10-31T05:01:19;6.25;;;2.50;;
18136;SDS011;9194;42.632;23.298;2022-10-31T05:06:20;6.43;;;2.90;;
18136;SDS011;9194;42.632;23.298;2022-10-31T05:11:22;4.70;;;2.45;;
18136;SDS011;9194;42.632;23.298;2022-10-31T05:16:23;7.25;;;2.67;;
18136;SDS011;9194;42.632;23.298;2022-10-31T05:21:59;8.82;;;3.17;;
18136;SDS011;9194;42.632;23.298;2022-10-31T05:27:01;8.98;;;3.05;;
18136;SDS011;9194;42.632;23.298;2022-10-31T05:32:02;8.35;;;3.33;;
18136;SDS011;9194;42.632;23.298;2022-10-31T05:37:27;16.88;;;4.88;;
18136;SDS011;9194;42.632;23.298;2022-10-31T05:42:28;8.77;;;4.40;;
18136;SDS011;9194;42.632;23.298;2022-10-31T05:47:29;11.95;;;5.40;;
18136;SDS011;9194;42.632;23.298;2022-10-31T05:52:54;11.85;;;6.65;;
18136;SDS011;9194;42.632;23.298;2022-10-31T05:58:06;17.50;;;6.00;;
18136;SDS011;9194;42.632;23.298;2022-10-31T06:03:09;15.75;;;5.57;;
18136;SDS011;9194;42.632;23.298;2022-10-31T06:08:40;14.35;;;6.78;;
18136;SDS011;9194;42.632;23.298;2022-10-31T06:13:48;18.50;;;6.88;;
18136;SDS011;9194;42.632;23.298;2022-10-31T06:19:04;11.13;;;6.88;;
18136;SDS011;9194;42.632;23.298;2022-10-31T06:24:06;13.25;;;7.10;;
18136;SDS011;9194;42.632;23.298;2022-10-31T06:29:31;14.25;;;7.95;;
18136;SDS011;9194;42.632;23.298;2022-10-31T06:34:45;14.48;;;7.65;;
18136;SDS011;9194;42.632;23.298;2022-10-31T06:39:49;20.65;;;9.50;;
18136;SDS011;9194;42.632;23.298;2022-10-31T06:44:51;16.90;;;8.55;;
18136;SDS011;9194;42.632;23.298;2022-10-31T06:50:22;16.42;;;8.40;;
18136;SDS011;9194;42.632;23.298;2022-10-31T06:55:24;18.77;;;8.55;;
18136;SDS011;9194;42.632;23.298;2022-10-31T07:00:27;22.20;;;9.43;;
18136;SDS011;9194;42.632;23.298;2022-10-31T07:05:38;15.18;;;7.65;;
18136;SDS011;9194;42.632;23.298;2022-10-31T07:10:41;18.80;;;8.10;;
18136;SDS011;9194;42.632;23.298;2022-10-31T07:15:44;21.63;;;8.60;;
18136;SDS011;9194;42.632;23.298;2022-10-31T07:20:45;17.63;;;8.63;;
18136;SDS011;9194;42.632;23.298;2022-10-31T07:25:47;17.58;;;9.27;;
18136;SDS011;9194;42.632;23.298;2022-10-31T07:30:54;20.98;;;8.95;;
18136;SDS011;9194;42.632;23.298;2022-10-31T07:35:57;21.33;;;10.13;;
18136;SDS011;9194;42.632;23.298;2022-10-31T07:41:03;22.33;;;10.13;;
18136;SDS011;9194;42.632;23.298;2022-10-31T07:46:07;20.42;;;9.57;;
18136;SDS011;9194;42.632;23.298;2022-10-31T07:51:37;16.60;;;9.25;;
18136;SDS011;9194;42.632;23.298;2022-10-31T07:56:57;27.52;;;9.52;;
18136;SDS011;9194;42.632;23.298;2022-10-31T08:01:58;29.30;;;9.40;;
18136;SDS011;9194;42.632;23.298;2022-10-31T08:07:06;21.92;;;10.55;;
18136;SDS011;9194;42.632;23.298;2022-10-31T08:12:10;28.88;;;10.68;;
18136;SDS011;9194;42.632;23.298;2022-10-31T08:17:12;30.10;;;10.10;;
18136;SDS011;9194;42.632;23.298;2022-10-31T08:22:25;34.10;;;10.77;;
18136;SDS011;9194;42.632;23.298;2022-10-31T08:27:27;22.00;;;10.05;;
18136;SDS011;9194;42.632;23.298;2022-10-31T08:32:31;24.23;;;9.82;;
18136;SDS011;9194;42.632;23.298;2022-10-31T08:38:08;19.20;;;9.43;;
18136;SDS011;9194;42.632;23.298;2022-10-31T08:43:17;33.70;;;10.25;;
18136;SDS011;9194;42.632;23.298;2022-10-31T08:48:19;29.30;;;10.02;;
18136;SDS011;9194;42.632;23.298;2022-10-31T08:53:21;23.52;;;9.27;;
18136;SDS011;9194;42.632;23.298;2022-10-31T08:58:34;27.55;;;10.38;;
18136;SDS011;9194;42.632;23.298;2022-10-31T09:03:37;28.98;;;10.70;;
18136;SDS011;9194;42.632;23.298;2022-10-31T09:08:39;21.88;;;10.05;;
18136;SDS011;9194;42.632;23.298;2022-10-31T09:13:41;24.63;;;7.07;;
18136;SDS011;9194;42.632;23.298;2022-10-31T09:19:00;20.02;;;4.18;;
18136;SDS011;9194;42.632;23.298;2022-10-31T09:24:02;5.47;;;2.35;;
18136;SDS011;9194;42.632;23.298;2022-10-31T09:29:03;7.10;;;2.00;;
18136;SDS011;9194;42.632;23.298;2022-10-31T09:34:06;13.25;;;4.38;;
18136;SDS011;9194;42.632;23.298;2022-10-31T09:39:10;5.53;;;2.35;;
18136;SDS011;9194;42.632;23.298;2022-10-31T09:54:36;8.90;;;4.05;;
18136;SDS011;9194;42.632;23.298;2022-10-31T09:59:45;11.63;;;5.45;;
18136;SDS011;9194;42.632;23.298;2022-10-31T10:05:32;15.43;;;4.03;;
18136;SDS011;9194;42.632;23.298;2022-10-31T10:10:32;10.52;;;3.10;;
18136;SDS011;9194;42.632;23.298;2022-10-31T10:21:52;10.45;;;2.65;;
18136;SDS011;9194;42.632;23.298;2022-10-31T10:33:09;12.75;;;2.53;;
18136;SDS011;9194;42.632;23.298;2022-10-31T10:59:16;8.60;;;3.03;;
18136;SDS011;9194;42.632;23.298;2022-10-31T11:04:24;10.80;;;2.40;;
18136;SDS011;9194;42.632;23.298;2022-10-31T11:09:31;9.00;;;2.53;;
18136;SDS011;9194;42.632;23.298;2022-10-31T11:14:35;7.80;;;2.53;;
18136;SDS011;9194;42.632;23.298;2022-10-31T11:19:45;9.90;;;2.60;;
18136;SDS011;9194;42.632;23.298;2022-10-31T11:24:46;10.98;;;2.45;;
18136;SDS011;9194;42.632;23.298;2022-10-31T11:29:48;6.40;;;2.20;;
18136;SDS011;9194;42.632;23.298;2022-10-31T11:34:51;4.40;;;2.30;;
18136;SDS011;9194;42.632;23.298;2022-10-31T11:40:00;7.32;;;2.63;;
18136;SDS011;9194;42.632;23.298;2022-10-31T11:45:07;5.70;;;2.40;;
18136;SDS011;9194;42.632;23.298;2022-10-31T11:50:37;4.78;;;2.67;;
18136;SDS011;9194;42.632;23.298;2022-10-31T11:55:41;5.82;;;2.65;;
18136;SDS011;9194;42.632;23.298;2022-10-31T12:00:48;9.93;;;2.45;;
18136;SDS011;9194;42.632;23.298;2022-10-31T12:05:56;8.55;;;2.90;;
18136;SDS011;9194;42.632;23.298;2022-10-31T12:42:51;9.90;;;2.72;;
18136;SDS011;9194;42.632;23.298;2022-10-31T12:48:06;6.75;;;2.53;;
18136;SDS011;9194;42.632;23.298;2022-10-31T12:58:26;9.68;;;2.80;;
18136;SDS011;9194;42.632;23.298;2022-10-31T13:08:55;7.20;;;2.63;;
18136;SDS011;9194;42.632;23.298;2022-10-31T13:14:03;12.60;;;3.00;;
18136;SDS011;9194;42.632;23.298;2022-10-31T13:24:23;7.38;;;2.45;;
18136;SDS011;9194;42.632;23.298;2022-10-31T13:29:39;8.10;;;2.63;;
18136;SDS011;9194;42.632;23.298;2022-10-31T13:34:46;7.55;;;2.45;;
18136;SDS011;9194;42.632;23.298;2022-10-31T13:45:13;8.60;;;2.67;;
18136;SDS011;9194;42.632;23.298;2022-10-31T13:50:20;5.72;;;2.40;;
18136;SDS011;9194;42.632;23.298;2022-10-31T14:00:42;7.60;;;2.42;;
18136;SDS011;9194;42.632;23.298;2022-10-31T14:05:44;7.05;;;2.72;;
18136;SDS011;9194;42.632;23.298;2022-10-31T14:10:54;7.68;;;2.65;;
18136;SDS011;9194;42.632;23.298;2022-10-31T14:21:16;11.85;;;1.95;;
18136;SDS011;9194;42.632;23.298;2022-10-31T14:26:30;7.90;;;2.60;;
18136;SDS011;9194;42.632;23.298;2022-10-31T14:31:38;18.85;;;2.45;;
18136;SDS011;9194;42.632;23.298;2022-10-31T14:47:24;8.10;;;2.47;;
18136;SDS011;9194;42.632;23.298;2022-10-31T14:52:56;6.57;;;2.95;;
18136;SDS011;9194;42.632;23.298;2022-10-31T14:58:02;12.82;;;2.60;;
18136;SDS011;9194;42.632;23.298;2022-10-31T15:03:18;2.45;;;2.25;;
18136;SDS011;9194;42.632;23.298;2022-10-31T15:08:31;11.13;;;2.95;;
18136;SDS011;9194;42.632;23.298;2022-10-31T15:13:35;8.88;;;2.88;;
18136;SDS011;9194;42.632;23.298;2022-10-31T15:18:46;15.73;;;2.90;;
18136;SDS011;9194;42.632;23.298;2022-10-31T15:23:51;6.80;;;2.60;;
18136;SDS011;9194;42.632;23.298;2022-10-31T15:34:11;7.32;;;2.90;;
18136;SDS011;9194;42.632;23.298;2022-10-31T15:39:20;8.57;;;2.65;;
18136;SDS011;9194;42.632;23.298;2022-10-31T15:49:35;6.97;;;2.97;;
18136;SDS011;9194;42.632;23.298;2022-10-31T15:54:46;7.13;;;2.58;;
18136;SDS011;9194;42.632;23.298;2022-10-31T15:59:50;7.80;;;2.92;;
18136;SDS011;9194;42.632;23.298;2022-10-31T16:04:58;12.77;;;3.05;;
18136;SDS011;9194;42.632;23.298;2022-10-31T16:10:02;7.55;;;2.63;;
18136;SDS011;9194;42.632;23.298;2022-10-31T16:15:04;8.60;;;3.13;;
18136;SDS011;9194;42.632;23.298;2022-10-31T16:20:26;4.97;;;2.10;;
18136;SDS011;9194;42.632;23.298;2022-10-31T16:25:33;6.78;;;2.55;;
18136;SDS011;9194;42.632;23.298;2022-10-31T16:30:42;12.15;;;2.35;;
18136;SDS011;9194;42.632;23.298;2022-10-31T16:35:47;6.93;;;2.17;;
18136;SDS011;9194;42.632;23.298;2022-10-31T16:40:49;15.32;;;2.45;;
18136;SDS011;9194;42.632;23.298;2022-10-31T16:45:52;10.65;;;2.45;;
18136;SDS011;9194;42.632;23.298;2022-10-31T16:50:53;4.78;;;1.77;;
18136;SDS011;9194;42.632;23.298;2022-10-31T16:55:55;10.13;;;2.28;;
18136;SDS011;9194;42.632;23.298;2022-10-31T17:00:59;11.10;;;1.80;;
18136;SDS011;9194;42.632;23.298;2022-10-31T17:06:02;9.80;;;1.85;;
18136;SDS011;9194;42.632;23.298;2022-10-31T17:11:04;6.47;;;1.98;;
18136;SDS011;9194;42.632;23.298;2022-10-31T17:16:06;6.85;;;2.05;;
18136;SDS011;9194;42.632;23.298;2022-10-31T17:21:11;7.85;;;2.20;;
18136;SDS011;9194;42.632;23.298;2022-10-31T17:26:17;7.03;;;1.88;;
18136;SDS011;9194;42.632;23.298;2022-10-31T17:31:22;7.93;;;2.55;;
18136;SDS011;9194;42.632;23.298;2022-10-31T17:36:26;10.23;;;2.13;;
18136;SDS011;9194;42.632;23.298;2022-10-31T17:41:28;7.70;;;2.13;;
18136;SDS011;9194;42.632;23.298;2022-10-31T17:46:29;8.48;;;1.92;;
18136;SDS011;9194;42.632;23.298;2022-10-31T17:51:30;14.13;;;2.40;;
18136;SDS011;9194;42.632;23.298;2022-10-31T17:56:32;4.18;;;1.42;;
18136;SDS011;9194;42.632;23.298;2022-10-31T18:01:33;8.45;;;2.38;;
18136;SDS011;9194;42.632;23.298;2022-10-31T18:06:35;5.15;;;2.03;;
18136;SDS011;9194;42.632;23.298;2022-10-31T18:11:36;6.28;;;2.95;;
18136;SDS011;9194;42.632;23.298;2022-10-31T18:16:37;3.60;;;1.98;;
18136;SDS011;9194;42.632;23.298;2022-10-31T18:21:39;10.18;;;2.22;;
18136;SDS011;9194;42.632;23.298;2022-10-31T18:26:40;4.30;;;2.20;;
18136;SDS011;9194;42.632;23.298;2022-10-31T18:31:41;7.90;;;2.42;;
18136;SDS011;9194;42.632;23.298;2022-10-31T18:36:43;6.57;;;2.53;;
18136;SDS011;9194;42.632;23.298;2022-10-31T18:41:44;4.85;;;2.05;;
18136;SDS011;9194;42.632;23.298;2022-10-31T18:46:46;7.20;;;1.90;;
18136;SDS011;9194;42.632;23.298;2022-10-31T18:51:48;4.72;;;1.98;;
18136;SDS011;9194;42.632;23.298;2022-10-31T18:56:50;8.85;;;1.60;;
18136;SDS011;9194;42.632;23.298;2022-10-31T19:01:51;7.88;;;2.03;;
18136;SDS011;9194;42.632;23.298;2022-10-31T19:06:53;6.32;;;1.73;;
18136;SDS011;9194;42.632;23.298;2022-10-31T19:11:55;7.05;;;1.90;;
18136;SDS011;9194;42.632;23.298;2022-10-31T19:16:56;3.17;;;1.65;;
18136;SDS011;9194;42.632;23.298;2022-10-31T19:21:59;2.90;;;2.00;;
18136;SDS011;9194;42.632;23.298;2022-10-31T19:27:01;8.32;;;2.13;;
18136;SDS011;9194;42.632;23.298;2022-10-31T19:32:04;3.20;;;1.85;;
18136;SDS011;9194;42.632;23.298;2022-10-31T19:37:05;9.35;;;1.65;;
18136;SDS011;9194;42.632;23.298;2022-10-31T19:42:06;12.70;;;1.88;;
18136;SDS011;9194;42.632;23.298;2022-10-31T19:47:08;3.60;;;2.10;;
18136;SDS011;9194;42.632;23.298;2022-10-31T19:52:10;7.47;;;1.90;;
18136;SDS011;9194;42.632;23.298;2022-10-31T19:57:12;5.13;;;2.20;;
18136;SDS011;9194;42.632;23.298;2022-10-31T20:02:13;4.75;;;2.05;;
18136;SDS011;9194;42.632;23.298;2022-10-31T20:07:20;11.70;;;2.00;;
18136;SDS011;9194;42.632;23.298;2022-10-31T20:12:22;7.77;;;1.90;;
18136;SDS011;9194;42.632;23.298;2022-10-31T20:17:23;7.70;;;2.00;;
18136;SDS011;9194;42.632;23.298;2022-10-31T20:22:24;7.37;;;1.77;;
18136;SDS011;9194;42.632;23.298;2022-10-31T20:27:26;12.77;;;2.00;;
18136;SDS011;9194;42.632;23.298;2022-10-31T20:32:27;5.03;;;1.87;;
18136;SDS011;9194;42.632;23.298;2022-10-31T20:37:29;2.60;;;2.03;;
18136;SDS011;9194;42.632;23.298;2022-10-31T20:42:30;7.30;;;1.80;;
18136;SDS011;9194;42.632;23.298;2022-10-31T20:47:31;12.73;;;2.17;;
18136;SDS011;9194;42.632;23.298;2022-10-31T20:52:32;15.20;;;1.97;;
18136;SDS011;9194;42.632;23.298;2022-10-31T20:57:34;5.63;;;2.03;;
18136;SDS011;9194;42.632;23.298;2022-10-31T21:02:38;3.73;;;1.60;;
18136;SDS011;9194;42.632;23.298;2022-10-31T21:07:41;6.88;;;1.80;;
18136;SDS011;9194;42.632;23.298;2022-10-31T21:12:42;3.95;;;2.17;;
18136;SDS011;9194;42.632;23.298;2022-10-31T21:17:44;3.75;;;1.90;;
18136;SDS011;9194;42.632;23.298;2022-10-31T21:22:46;4.03;;;2.08;;
18136;SDS011;9194;42.632;23.298;2022-10-31T21:27:47;7.10;;;2.20;;
18136;SDS011;9194;42.632;23.298;2022-10-31T21:32:48;6.50;;;1.90;;
18136;SDS011;9194;42.632;23.298;2022-10-31T21:37:49;5.47;;;1.90;;
18136;SDS011;9194;42.632;23.298;2022-10-31T21:42:51;7.07;;;2.43;;
18136;SDS011;9194;42.632;23.298;2022-10-31T21:47:52;13.20;;;2.30;;
18136;SDS011;9194;42.632;23.298;2022-10-31T21:52:53;6.72;;;1.92;;
18136;SDS011;9194;42.632;23.298;2022-10-31T21:57:55;7.20;;;2.38;;
18136;SDS011;9194;42.632;23.298;2022-10-31T22:02:57;3.50;;;2.17;;
18136;SDS011;9194;42.632;23.298;2022-10-31T22:07:58;4.50;;;2.70;;
18136;SDS011;9194;42.632;23.298;2022-10-31T22:12:59;3.70;;;2.07;;
18136;SDS011;9194;42.632;23.298;2022-10-31T22:18:00;2.70;;;2.05;;
18136;SDS011;9194;42.632;23.298;2022-10-31T22:23:02;5.77;;;2.50;;
18136;SDS011;9194;42.632;23.298;2022-10-31T22:28:03;7.22;;;2.40;;
18136;SDS011;9194;42.632;23.298;2022-10-31T22:33:07;3.73;;;2.20;;
18136;SDS011;9194;42.632;23.298;2022-10-31T22:38:09;5.33;;;2.27;;
18136;SDS011;9194;42.632;23.298;2022-10-31T22:43:10;4.10;;;2.40;;
18136;SDS011;9194;42.632;23.298;2022-10-31T22:48:11;3.27;;;1.93;;
18136;SDS011;9194;42.632;23.298;2022-10-31T22:53:13;8.13;;;2.60;;
18136;SDS011;9194;42.632;23.298;2022-10-31T22:58:15;11.23;;;2.53;;
18136;SDS011;9194;42.632;23.298;2022-10-31T23:03:16;4.27;;;2.43;;
18136;SDS011;9194;42.632;23.298;2022-10-31T23:08:18;5.80;;;2.50;;
18136;SDS011;9194;42.632;23.298;2022-10-31T23:13:19;6.07;;;2.30;;
18136;SDS011;9194;42.632;23.298;2022-10-31T23:18:56;3.77;;;2.10;;
18136;SDS011;9194;42.632;23.298;2022-10-31T23:23:58;2.80;;;2.60;;
18136;SDS011;9194;42.632;23.298;2022-10-31T23:28:59;6.00;;;2.60;;
18136;SDS011;9194;42.632;23.298;2022-10-31T23:34:00;10.10;;;2.87;;
18136;SDS011;9194;42.632;23.298;2022-10-31T23:39:02;8.37;;;2.80;;
18136;SDS011;9194;42.632;23.298;2022-10-31T23:44:03;7.40;;;2.80;;
18136;SDS011;9194;42.632;23.298;2022-10-31T23:49:04;11.87;;;2.80;;
18136;SDS011;9194;42.632;23.298;2022-10-31T23:54:06;11.07;;;2.77;;
18136;SDS011;9194;42.632;23.298;2022-10-31T23:59:07;6.80;;;2.67;;
